sensor_id;sensor_type;location;lat;lon;timestamp;temperature;humidity
56298;DHT22;42208;6.376;-10.782;2022-12-29T00:01:00;28.00;99.90
56298;DHT22;42208;6.376;-10.782;2022-12-29T00:03:29;28.00;99.90
56298;DHT22;42208;6.376;-10.782;2022-12-29T00:05:57;28.00;99.90
56298;DHT22;42208;6.376;-10.782;2022-12-29T00:08:26;28.10;99.90
56298;DHT22;42208;6.376;-10.782;2022-12-29T00:10:54;28.10;99.90
56298;DHT22;42208;6.376;-10.782;2022-12-29T00:13:22;28.10;99.90
56298;DHT22;42208;6.376;-10.782;2022-12-29T00:15:51;28.00;99.90
56298;DHT22;42208;6.376;-10.782;2022-12-29T00:18:19;28.00;99.90
56298;DHT22;42208;6.376;-10.782;2022-12-29T00:20:47;28.00;99.90
56298;DHT22;42208;6.376;-10.782;2022-12-29T00:23:16;27.90;99.90
56298;DHT22;42208;6.376;-10.782;2022-12-29T00:25:46;28.00;99.90
56298;DHT22;42208;6.376;-10.782;2022-12-29T00:28:14;28.00;99.90
56298;DHT22;42208;6.376;-10.782;2022-12-29T00:30:44;27.90;99.90
56298;DHT22;42208;6.376;-10.782;2022-12-29T00:33:17;27.90;99.90
56298;DHT22;42208;6.376;-10.782;2022-12-29T00:35:52;27.90;99.90
56298;DHT22;42208;6.376;-10.782;2022-12-29T00:38:21;27.90;99.90
56298;DHT22;42208;6.376;-10.782;2022-12-29T00:40:50;27.90;99.90
56298;DHT22;42208;6.376;-10.782;2022-12-29T00:43:21;27.90;99.90
56298;DHT22;42208;6.376;-10.782;2022-12-29T00:45:50;27.90;99.90
56298;DHT22;42208;6.376;-10.782;2022-12-29T00:48:18;27.90;99.90
56298;DHT22;42208;6.376;-10.782;2022-12-29T00:50:46;28.00;99.90
56298;DHT22;42208;6.376;-10.782;2022-12-29T00:53:16;27.90;99.90
56298;DHT22;42208;6.376;-10.782;2022-12-29T00:55:44;27.90;99.90
56298;DHT22;42208;6.376;-10.782;2022-12-29T00:58:13;27.90;99.90
56298;DHT22;42208;6.376;-10.782;2022-12-29T01:00:41;27.90;99.90
56298;DHT22;42208;6.376;-10.782;2022-12-29T01:03:09;27.90;99.90
56298;DHT22;42208;6.376;-10.782;2022-12-29T01:05:38;27.90;99.90
56298;DHT22;42208;6.376;-10.782;2022-12-29T01:08:07;27.90;99.90
56298;DHT22;42208;6.376;-10.782;2022-12-29T01:10:36;27.90;99.90
56298;DHT22;42208;6.376;-10.782;2022-12-29T01:13:04;27.90;99.90
56298;DHT22;42208;6.376;-10.782;2022-12-29T01:15:32;27.90;99.90
56298;DHT22;42208;6.376;-10.782;2022-12-29T01:18:01;28.00;99.90
56298;DHT22;42208;6.376;-10.782;2022-12-29T01:20:30;28.00;99.90
56298;DHT22;42208;6.376;-10.782;2022-12-29T01:22:58;28.00;99.90
56298;DHT22;42208;6.376;-10.782;2022-12-29T01:25:26;28.00;99.90
56298;DHT22;42208;6.376;-10.782;2022-12-29T01:27:56;27.90;99.90
56298;DHT22;42208;6.376;-10.782;2022-12-29T01:30:25;27.90;99.90
56298;DHT22;42208;6.376;-10.782;2022-12-29T01:32:54;27.90;99.90
56298;DHT22;42208;6.376;-10.782;2022-12-29T01:35:22;27.90;99.90
56298;DHT22;42208;6.376;-10.782;2022-12-29T01:37:51;27.90;99.90
56298;DHT22;42208;6.376;-10.782;2022-12-29T01:40:19;27.90;99.90
56298;DHT22;42208;6.376;-10.782;2022-12-29T01:42:48;28.00;99.90
56298;DHT22;42208;6.376;-10.782;2022-12-29T01:45:18;28.00;99.90
56298;DHT22;42208;6.376;-10.782;2022-12-29T01:47:59;28.00;99.90
56298;DHT22;42208;6.376;-10.782;2022-12-29T01:50:33;28.00;99.90
56298;DHT22;42208;6.376;-10.782;2022-12-29T01:53:10;27.90;99.90
56298;DHT22;42208;6.376;-10.782;2022-12-29T01:55:51;27.90;99.90
56298;DHT22;42208;6.376;-10.782;2022-12-29T01:58:24;27.90;99.90
56298;DHT22;42208;6.376;-10.782;2022-12-29T02:00:54;27.80;99.90
56298;DHT22;42208;6.376;-10.782;2022-12-29T02:03:25;27.70;99.90
56298;DHT22;42208;6.376;-10.782;2022-12-29T02:06:25;27.60;99.90
56298;DHT22;42208;6.376;-10.782;2022-12-29T02:08:56;27.40;99.90
56298;DHT22;42208;6.376;-10.782;2022-12-29T02:11:26;27.30;99.90
56298;DHT22;42208;6.376;-10.782;2022-12-29T02:13:57;27.30;99.90
56298;DHT22;42208;6.376;-10.782;2022-12-29T02:19:19;27.10;99.90
56298;DHT22;42208;6.376;-10.782;2022-12-29T02:22:43;27.10;99.90
56298;DHT22;42208;6.376;-10.782;2022-12-29T02:33:33;27.00;99.90
56298;DHT22;42208;6.376;-10.782;2022-12-29T02:36:10;27.00;99.90
56298;DHT22;42208;6.376;-10.782;2022-12-29T02:41:32;26.90;99.90
56298;DHT22;42208;6.376;-10.782;2022-12-29T02:44:24;26.90;99.90
56298;DHT22;42208;6.376;-10.782;2022-12-29T02:50:43;26.80;99.90
56298;DHT22;42208;6.376;-10.782;2022-12-29T02:53:11;26.80;99.90
56298;DHT22;42208;6.376;-10.782;2022-12-29T02:55:49;26.80;99.90
56298;DHT22;42208;6.376;-10.782;2022-12-29T02:58:20;26.80;99.90
56298;DHT22;42208;6.376;-10.782;2022-12-29T03:01:00;26.80;99.90
56298;DHT22;42208;6.376;-10.782;2022-12-29T03:09:26;26.80;99.90
56298;DHT22;42208;6.376;-10.782;2022-12-29T03:12:14;26.80;99.90
56298;DHT22;42208;6.376;-10.782;2022-12-29T03:18:21;26.80;99.90
56298;DHT22;42208;6.376;-10.782;2022-12-29T03:20:52;26.70;99.90
56298;DHT22;42208;6.376;-10.782;2022-12-29T03:23:25;26.70;99.90
56298;DHT22;42208;6.376;-10.782;2022-12-29T03:25:57;26.70;99.90
56298;DHT22;42208;6.376;-10.782;2022-12-29T03:28:28;26.70;99.90
56298;DHT22;42208;6.376;-10.782;2022-12-29T03:30:58;26.70;99.90
56298;DHT22;42208;6.376;-10.782;2022-12-29T03:33:29;26.70;99.90
56298;DHT22;42208;6.376;-10.782;2022-12-29T03:36:03;26.70;99.90
56298;DHT22;42208;6.376;-10.782;2022-12-29T03:41:09;26.70;99.90
56298;DHT22;42208;6.376;-10.782;2022-12-29T03:43:39;26.70;99.90
56298;DHT22;42208;6.376;-10.782;2022-12-29T03:46:07;26.70;99.90
56298;DHT22;42208;6.376;-10.782;2022-12-29T03:48:38;26.70;99.90
56298;DHT22;42208;6.376;-10.782;2022-12-29T03:51:06;26.70;99.90
56298;DHT22;42208;6.376;-10.782;2022-12-29T03:53:35;26.70;99.90
56298;DHT22;42208;6.376;-10.782;2022-12-29T03:56:04;26.70;99.90
56298;DHT22;42208;6.376;-10.782;2022-12-29T03:58:33;26.60;99.90
56298;DHT22;42208;6.376;-10.782;2022-12-29T04:01:27;26.60;99.90
56298;DHT22;42208;6.376;-10.782;2022-12-29T04:03:56;26.60;99.90
56298;DHT22;42208;6.376;-10.782;2022-12-29T04:06:25;26.50;99.90
56298;DHT22;42208;6.376;-10.782;2022-12-29T04:08:59;26.50;99.90
56298;DHT22;42208;6.376;-10.782;2022-12-29T04:11:31;26.50;99.90
56298;DHT22;42208;6.376;-10.782;2022-12-29T04:14:03;26.60;99.90
56298;DHT22;42208;6.376;-10.782;2022-12-29T04:16:33;26.60;99.90
56298;DHT22;42208;6.376;-10.782;2022-12-29T04:19:03;26.60;99.90
56298;DHT22;42208;6.376;-10.782;2022-12-29T04:21:32;26.60;99.90
56298;DHT22;42208;6.376;-10.782;2022-12-29T04:24:01;26.60;99.90
56298;DHT22;42208;6.376;-10.782;2022-12-29T04:26:31;26.60;99.90
56298;DHT22;42208;6.376;-10.782;2022-12-29T04:29:20;26.60;99.90
56298;DHT22;42208;6.376;-10.782;2022-12-29T04:32:11;26.60;99.90
56298;DHT22;42208;6.376;-10.782;2022-12-29T04:34:44;26.60;99.90
56298;DHT22;42208;6.376;-10.782;2022-12-29T04:37:13;26.50;99.90
56298;DHT22;42208;6.376;-10.782;2022-12-29T04:39:41;26.60;99.90
56298;DHT22;42208;6.376;-10.782;2022-12-29T04:42:10;26.50;99.90
56298;DHT22;42208;6.376;-10.782;2022-12-29T04:44:38;26.50;99.90
56298;DHT22;42208;6.376;-10.782;2022-12-29T04:47:31;26.50;99.90
56298;DHT22;42208;6.376;-10.782;2022-12-29T04:50:19;26.50;99.90
56298;DHT22;42208;6.376;-10.782;2022-12-29T04:53:08;26.50;99.90
56298;DHT22;42208;6.376;-10.782;2022-12-29T04:55:37;26.50;99.90
56298;DHT22;42208;6.376;-10.782;2022-12-29T04:58:06;26.50;99.90
56298;DHT22;42208;6.376;-10.782;2022-12-29T05:00:35;26.50;99.90
56298;DHT22;42208;6.376;-10.782;2022-12-29T05:03:03;26.50;99.90
56298;DHT22;42208;6.376;-10.782;2022-12-29T05:05:31;26.40;99.90
56298;DHT22;42208;6.376;-10.782;2022-12-29T05:08:01;26.50;99.90
56298;DHT22;42208;6.376;-10.782;2022-12-29T05:10:30;26.50;99.90
56298;DHT22;42208;6.376;-10.782;2022-12-29T05:13:03;26.40;99.90
56298;DHT22;42208;6.376;-10.782;2022-12-29T05:15:32;26.50;99.90
56298;DHT22;42208;6.376;-10.782;2022-12-29T05:18:00;26.50;99.90
56298;DHT22;42208;6.376;-10.782;2022-12-29T05:20:29;26.50;99.90
56298;DHT22;42208;6.376;-10.782;2022-12-29T05:22:57;26.50;99.90
56298;DHT22;42208;6.376;-10.782;2022-12-29T05:25:26;26.50;99.90
56298;DHT22;42208;6.376;-10.782;2022-12-29T05:28:13;26.60;99.90
56298;DHT22;42208;6.376;-10.782;2022-12-29T05:30:50;26.50;99.90
56298;DHT22;42208;6.376;-10.782;2022-12-29T05:33:19;26.40;99.90
56298;DHT22;42208;6.376;-10.782;2022-12-29T05:35:49;26.40;99.90
56298;DHT22;42208;6.376;-10.782;2022-12-29T05:38:19;26.40;99.90
56298;DHT22;42208;6.376;-10.782;2022-12-29T05:40:47;26.40;99.90
56298;DHT22;42208;6.376;-10.782;2022-12-29T05:43:35;26.40;99.90
56298;DHT22;42208;6.376;-10.782;2022-12-29T05:46:27;26.40;99.90
56298;DHT22;42208;6.376;-10.782;2022-12-29T05:49:18;26.40;99.90
56298;DHT22;42208;6.376;-10.782;2022-12-29T05:52:00;26.40;99.90
56298;DHT22;42208;6.376;-10.782;2022-12-29T05:54:29;26.40;99.90
56298;DHT22;42208;6.376;-10.782;2022-12-29T05:56:57;26.40;99.90
56298;DHT22;42208;6.376;-10.782;2022-12-29T05:59:25;26.50;99.90
56298;DHT22;42208;6.376;-10.782;2022-12-29T06:01:54;26.40;99.90
56298;DHT22;42208;6.376;-10.782;2022-12-29T06:04:23;26.40;99.90
56298;DHT22;42208;6.376;-10.782;2022-12-29T06:06:52;26.40;99.90
56298;DHT22;42208;6.376;-10.782;2022-12-29T06:09:33;26.40;99.90
56298;DHT22;42208;6.376;-10.782;2022-12-29T06:12:03;26.40;99.90
56298;DHT22;42208;6.376;-10.782;2022-12-29T06:14:32;26.40;99.90
56298;DHT22;42208;6.376;-10.782;2022-12-29T06:17:02;26.40;99.90
56298;DHT22;42208;6.376;-10.782;2022-12-29T06:19:32;26.40;99.90
56298;DHT22;42208;6.376;-10.782;2022-12-29T06:22:01;26.50;99.90
56298;DHT22;42208;6.376;-10.782;2022-12-29T06:24:32;26.40;99.90
56298;DHT22;42208;6.376;-10.782;2022-12-29T06:27:01;26.40;99.90
56298;DHT22;42208;6.376;-10.782;2022-12-29T06:29:31;26.40;99.90
56298;DHT22;42208;6.376;-10.782;2022-12-29T06:31:59;26.40;99.90
56298;DHT22;42208;6.376;-10.782;2022-12-29T06:34:30;26.40;99.90
56298;DHT22;42208;6.376;-10.782;2022-12-29T06:36:59;26.40;99.90
56298;DHT22;42208;6.376;-10.782;2022-12-29T06:39:27;26.40;99.90
56298;DHT22;42208;6.376;-10.782;2022-12-29T06:42:06;26.40;99.90
56298;DHT22;42208;6.376;-10.782;2022-12-29T06:44:56;26.40;99.90
56298;DHT22;42208;6.376;-10.782;2022-12-29T06:47:24;26.30;99.90
56298;DHT22;42208;6.376;-10.782;2022-12-29T06:49:52;26.30;99.90
56298;DHT22;42208;6.376;-10.782;2022-12-29T06:52:21;26.40;99.90
56298;DHT22;42208;6.376;-10.782;2022-12-29T06:54:49;26.40;99.90
56298;DHT22;42208;6.376;-10.782;2022-12-29T06:57:17;26.40;99.90
56298;DHT22;42208;6.376;-10.782;2022-12-29T06:59:46;26.40;99.90
56298;DHT22;42208;6.376;-10.782;2022-12-29T07:02:14;26.50;99.90
56298;DHT22;42208;6.376;-10.782;2022-12-29T07:04:43;26.50;99.90
56298;DHT22;42208;6.376;-10.782;2022-12-29T07:07:11;26.40;99.90
56298;DHT22;42208;6.376;-10.782;2022-12-29T07:09:39;26.40;99.90
56298;DHT22;42208;6.376;-10.782;2022-12-29T07:12:08;26.40;99.90
56298;DHT22;42208;6.376;-10.782;2022-12-29T07:14:36;26.40;99.90
56298;DHT22;42208;6.376;-10.782;2022-12-29T07:17:10;26.40;99.90
56298;DHT22;42208;6.376;-10.782;2022-12-29T07:19:38;26.40;99.90
56298;DHT22;42208;6.376;-10.782;2022-12-29T07:22:06;26.40;99.90
56298;DHT22;42208;6.376;-10.782;2022-12-29T07:24:34;26.40;99.90
56298;DHT22;42208;6.376;-10.782;2022-12-29T07:27:03;26.40;99.90
56298;DHT22;42208;6.376;-10.782;2022-12-29T07:29:31;26.40;99.90
56298;DHT22;42208;6.376;-10.782;2022-12-29T07:31:59;26.50;99.90
56298;DHT22;42208;6.376;-10.782;2022-12-29T07:34:28;26.40;99.90
56298;DHT22;42208;6.376;-10.782;2022-12-29T07:36:56;26.40;99.90
56298;DHT22;42208;6.376;-10.782;2022-12-29T07:39:25;26.40;99.90
56298;DHT22;42208;6.376;-10.782;2022-12-29T07:41:53;26.40;99.90
56298;DHT22;42208;6.376;-10.782;2022-12-29T07:44:36;26.40;99.90
56298;DHT22;42208;6.376;-10.782;2022-12-29T07:47:23;26.40;99.90
56298;DHT22;42208;6.376;-10.782;2022-12-29T07:49:51;26.40;99.90
56298;DHT22;42208;6.376;-10.782;2022-12-29T07:52:19;26.40;99.90
56298;DHT22;42208;6.376;-10.782;2022-12-29T07:54:48;26.40;99.90
56298;DHT22;42208;6.376;-10.782;2022-12-29T07:57:16;26.40;99.90
56298;DHT22;42208;6.376;-10.782;2022-12-29T07:59:45;26.40;99.90
56298;DHT22;42208;6.376;-10.782;2022-12-29T08:02:13;26.40;99.90
56298;DHT22;42208;6.376;-10.782;2022-12-29T08:04:41;26.40;99.90
56298;DHT22;42208;6.376;-10.782;2022-12-29T08:07:10;26.40;99.90
56298;DHT22;42208;6.376;-10.782;2022-12-29T08:09:38;26.40;99.90
56298;DHT22;42208;6.376;-10.782;2022-12-29T08:12:10;26.40;99.90
56298;DHT22;42208;6.376;-10.782;2022-12-29T08:14:38;26.50;99.90
56298;DHT22;42208;6.376;-10.782;2022-12-29T08:17:06;26.50;99.90
56298;DHT22;42208;6.376;-10.782;2022-12-29T08:19:35;26.60;99.90
56298;DHT22;42208;6.376;-10.782;2022-12-29T08:22:03;26.50;99.90
56298;DHT22;42208;6.376;-10.782;2022-12-29T08:24:32;26.60;99.90
56298;DHT22;42208;6.376;-10.782;2022-12-29T08:27:00;26.60;99.90
56298;DHT22;42208;6.376;-10.782;2022-12-29T08:29:42;26.60;99.90
56298;DHT22;42208;6.376;-10.782;2022-12-29T08:32:11;26.60;99.90
56298;DHT22;42208;6.376;-10.782;2022-12-29T08:34:39;26.60;99.90
56298;DHT22;42208;6.376;-10.782;2022-12-29T08:37:08;26.60;99.90
56298;DHT22;42208;6.376;-10.782;2022-12-29T08:39:36;26.70;99.90
56298;DHT22;42208;6.376;-10.782;2022-12-29T08:42:04;26.70;99.90
56298;DHT22;42208;6.376;-10.782;2022-12-29T08:44:33;26.70;99.90
56298;DHT22;42208;6.376;-10.782;2022-12-29T08:47:01;26.80;99.90
56298;DHT22;42208;6.376;-10.782;2022-12-29T08:49:29;26.80;99.90
56298;DHT22;42208;6.376;-10.782;2022-12-29T08:51:57;26.80;99.90
56298;DHT22;42208;6.376;-10.782;2022-12-29T08:54:26;26.90;99.90
56298;DHT22;42208;6.376;-10.782;2022-12-29T08:56:54;26.90;99.90
56298;DHT22;42208;6.376;-10.782;2022-12-29T08:59:31;26.90;99.90
56298;DHT22;42208;6.376;-10.782;2022-12-29T09:01:59;26.90;99.90
56298;DHT22;42208;6.376;-10.782;2022-12-29T09:04:28;26.90;99.90
56298;DHT22;42208;6.376;-10.782;2022-12-29T09:06:57;27.00;99.90
56298;DHT22;42208;6.376;-10.782;2022-12-29T09:09:25;27.00;99.90
56298;DHT22;42208;6.376;-10.782;2022-12-29T09:11:53;27.10;99.90
56298;DHT22;42208;6.376;-10.782;2022-12-29T09:14:22;27.10;99.90
56298;DHT22;42208;6.376;-10.782;2022-12-29T09:16:54;27.10;99.90
56298;DHT22;42208;6.376;-10.782;2022-12-29T09:19:22;27.10;99.90
56298;DHT22;42208;6.376;-10.782;2022-12-29T09:21:50;27.20;99.90
56298;DHT22;42208;6.376;-10.782;2022-12-29T09:24:18;27.20;99.90
56298;DHT22;42208;6.376;-10.782;2022-12-29T09:26:47;27.20;99.90
56298;DHT22;42208;6.376;-10.782;2022-12-29T09:29:15;27.20;99.90
56298;DHT22;42208;6.376;-10.782;2022-12-29T09:31:43;27.30;99.90
56298;DHT22;42208;6.376;-10.782;2022-12-29T09:34:12;27.30;99.90
56298;DHT22;42208;6.376;-10.782;2022-12-29T09:36:40;27.30;99.90
56298;DHT22;42208;6.376;-10.782;2022-12-29T09:39:08;27.30;99.90
56298;DHT22;42208;6.376;-10.782;2022-12-29T09:47:19;27.40;99.90
56298;DHT22;42208;6.376;-10.782;2022-12-29T09:49:58;27.40;99.90
56298;DHT22;42208;6.376;-10.782;2022-12-29T09:52:36;27.50;99.90
56298;DHT22;42208;6.376;-10.782;2022-12-29T09:55:16;27.60;99.90
56298;DHT22;42208;6.376;-10.782;2022-12-29T09:57:57;27.70;99.90
56298;DHT22;42208;6.376;-10.782;2022-12-29T10:00:37;27.70;99.90
56298;DHT22;42208;6.376;-10.782;2022-12-29T10:03:16;27.80;99.90
56298;DHT22;42208;6.376;-10.782;2022-12-29T10:25:37;28.00;99.90
56298;DHT22;42208;6.376;-10.782;2022-12-29T10:28:46;28.00;99.90
56298;DHT22;42208;6.376;-10.782;2022-12-29T10:31:20;28.00;99.90
56298;DHT22;42208;6.376;-10.782;2022-12-29T10:33:53;28.00;99.90
56298;DHT22;42208;6.376;-10.782;2022-12-29T10:36:39;28.10;99.90
56298;DHT22;42208;6.376;-10.782;2022-12-29T10:39:21;28.10;99.90
56298;DHT22;42208;6.376;-10.782;2022-12-29T10:41:59;28.20;99.90
56298;DHT22;42208;6.376;-10.782;2022-12-29T10:44:31;28.20;99.90
56298;DHT22;42208;6.376;-10.782;2022-12-29T10:47:09;28.10;99.90
56298;DHT22;42208;6.376;-10.782;2022-12-29T10:49:41;28.10;99.90
56298;DHT22;42208;6.376;-10.782;2022-12-29T10:52:10;28.10;99.90
56298;DHT22;42208;6.376;-10.782;2022-12-29T10:55:46;28.20;99.90
56298;DHT22;42208;6.376;-10.782;2022-12-29T10:57:46;28.20;99.90
56298;DHT22;42208;6.376;-10.782;2022-12-29T11:00:20;28.20;99.90
56298;DHT22;42208;6.376;-10.782;2022-12-29T11:06:00;28.40;99.90
56298;DHT22;42208;6.376;-10.782;2022-12-29T11:08:44;28.40;99.90
56298;DHT22;42208;6.376;-10.782;2022-12-29T11:11:26;28.40;99.90
56298;DHT22;42208;6.376;-10.782;2022-12-29T11:14:19;28.40;99.90
56298;DHT22;42208;6.376;-10.782;2022-12-29T11:17:04;28.50;99.90
56298;DHT22;42208;6.376;-10.782;2022-12-29T11:19:33;28.60;99.90
56298;DHT22;42208;6.376;-10.782;2022-12-29T11:22:28;28.80;99.90
56298;DHT22;42208;6.376;-10.782;2022-12-29T11:25:09;28.80;99.90
56298;DHT22;42208;6.376;-10.782;2022-12-29T11:27:39;28.90;99.90
56298;DHT22;42208;6.376;-10.782;2022-12-29T11:30:24;29.00;99.90
56298;DHT22;42208;6.376;-10.782;2022-12-29T11:32:54;29.00;99.90
56298;DHT22;42208;6.376;-10.782;2022-12-29T11:35:38;29.00;99.90
56298;DHT22;42208;6.376;-10.782;2022-12-29T11:38:22;29.10;99.90
56298;DHT22;42208;6.376;-10.782;2022-12-29T11:40:51;29.20;99.90
56298;DHT22;42208;6.376;-10.782;2022-12-29T11:43:41;29.20;99.90
56298;DHT22;42208;6.376;-10.782;2022-12-29T11:46:24;29.40;99.90
56298;DHT22;42208;6.376;-10.782;2022-12-29T11:48:55;29.40;99.90
56298;DHT22;42208;6.376;-10.782;2022-12-29T11:51:37;29.40;99.90
56298;DHT22;42208;6.376;-10.782;2022-12-29T11:54:32;29.50;99.90
56298;DHT22;42208;6.376;-10.782;2022-12-29T11:57:15;29.60;99.90
56298;DHT22;42208;6.376;-10.782;2022-12-29T11:59:52;29.60;99.90
56298;DHT22;42208;6.376;-10.782;2022-12-29T12:05:01;29.60;99.90
56298;DHT22;42208;6.376;-10.782;2022-12-29T12:07:45;29.40;99.90
56298;DHT22;42208;6.376;-10.782;2022-12-29T12:10:20;29.40;99.90
56298;DHT22;42208;6.376;-10.782;2022-12-29T12:23:54;29.10;99.90
56298;DHT22;42208;6.376;-10.782;2022-12-29T12:27:08;29.20;99.90
56298;DHT22;42208;6.376;-10.782;2022-12-29T12:32:34;29.50;99.90
56298;DHT22;42208;6.376;-10.782;2022-12-29T12:35:14;29.70;99.90
56298;DHT22;42208;6.376;-10.782;2022-12-29T12:43:39;29.60;99.90
56298;DHT22;42208;6.376;-10.782;2022-12-29T12:54:56;29.80;99.90
56298;DHT22;42208;6.376;-10.782;2022-12-29T13:00:26;30.00;99.90
56298;DHT22;42208;6.376;-10.782;2022-12-29T13:14:38;29.90;99.90
56298;DHT22;42208;6.376;-10.782;2022-12-29T13:22:37;29.80;99.90
56298;DHT22;42208;6.376;-10.782;2022-12-29T13:25:42;29.80;99.90
56298;DHT22;42208;6.376;-10.782;2022-12-29T13:33:47;30.20;99.90
56298;DHT22;42208;6.376;-10.782;2022-12-29T13:38:53;30.40;99.90
56298;DHT22;42208;6.376;-10.782;2022-12-29T13:41:45;30.30;99.90
56298;DHT22;42208;6.376;-10.782;2022-12-29T13:44:24;30.30;99.90
56298;DHT22;42208;6.376;-10.782;2022-12-29T13:47:00;30.30;99.90
56298;DHT22;42208;6.376;-10.782;2022-12-29T13:49:29;29.90;99.90
56298;DHT22;42208;6.376;-10.782;2022-12-29T13:52:04;30.10;99.90
56298;DHT22;42208;6.376;-10.782;2022-12-29T13:57:57;30.10;99.90
56298;DHT22;42208;6.376;-10.782;2022-12-29T14:00:29;30.00;99.90
56298;DHT22;42208;6.376;-10.782;2022-12-29T14:06:15;30.20;99.90
56298;DHT22;42208;6.376;-10.782;2022-12-29T14:08:45;30.30;99.90
56298;DHT22;42208;6.376;-10.782;2022-12-29T14:11:16;30.40;99.90
56298;DHT22;42208;6.376;-10.782;2022-12-29T14:13:46;30.50;99.90
56298;DHT22;42208;6.376;-10.782;2022-12-29T14:16:34;30.40;99.90
56298;DHT22;42208;6.376;-10.782;2022-12-29T14:19:26;30.40;99.90
56298;DHT22;42208;6.376;-10.782;2022-12-29T14:21:57;30.40;99.90
56298;DHT22;42208;6.376;-10.782;2022-12-29T14:29:51;30.50;99.90
56298;DHT22;42208;6.376;-10.782;2022-12-29T14:35:31;30.60;99.90
56298;DHT22;42208;6.376;-10.782;2022-12-29T14:38:05;30.60;99.90
56298;DHT22;42208;6.376;-10.782;2022-12-29T14:40:34;30.60;99.90
56298;DHT22;42208;6.376;-10.782;2022-12-29T14:43:33;30.30;99.90
56298;DHT22;42208;6.376;-10.782;2022-12-29T14:46:01;30.30;99.90
56298;DHT22;42208;6.376;-10.782;2022-12-29T14:48:39;30.30;99.90
56298;DHT22;42208;6.376;-10.782;2022-12-29T14:51:18;30.10;99.90
56298;DHT22;42208;6.376;-10.782;2022-12-29T14:53:51;29.70;99.90
56298;DHT22;42208;6.376;-10.782;2022-12-29T14:56:25;29.60;99.90
56298;DHT22;42208;6.376;-10.782;2022-12-29T14:58:57;29.50;99.90
56298;DHT22;42208;6.376;-10.782;2022-12-29T15:04:21;29.40;99.90
56298;DHT22;42208;6.376;-10.782;2022-12-29T15:06:50;29.40;99.90
56298;DHT22;42208;6.376;-10.782;2022-12-29T15:09:35;29.30;99.90
56298;DHT22;42208;6.376;-10.782;2022-12-29T15:12:15;29.20;99.90
56298;DHT22;42208;6.376;-10.782;2022-12-29T15:14:58;29.10;99.90
56298;DHT22;42208;6.376;-10.782;2022-12-29T15:17:28;29.10;99.90
56298;DHT22;42208;6.376;-10.782;2022-12-29T15:19:59;29.10;99.90
56298;DHT22;42208;6.376;-10.782;2022-12-29T15:22:28;29.10;99.90
56298;DHT22;42208;6.376;-10.782;2022-12-29T15:24:58;29.00;99.90
56298;DHT22;42208;6.376;-10.782;2022-12-29T15:27:26;29.00;99.90
56298;DHT22;42208;6.376;-10.782;2022-12-29T15:30:00;29.00;99.90
56298;DHT22;42208;6.376;-10.782;2022-12-29T15:32:40;29.00;99.90
56298;DHT22;42208;6.376;-10.782;2022-12-29T15:37:59;28.90;99.90
56298;DHT22;42208;6.376;-10.782;2022-12-29T15:40:32;28.90;99.90
56298;DHT22;42208;6.376;-10.782;2022-12-29T15:43:23;29.00;99.90
56298;DHT22;42208;6.376;-10.782;2022-12-29T15:45:54;29.00;99.90
56298;DHT22;42208;6.376;-10.782;2022-12-29T15:48:24;29.20;99.90
56298;DHT22;42208;6.376;-10.782;2022-12-29T15:50:53;29.30;99.90
56298;DHT22;42208;6.376;-10.782;2022-12-29T15:53:31;29.30;99.90
56298;DHT22;42208;6.376;-10.782;2022-12-29T15:56:05;29.40;99.90
56298;DHT22;42208;6.376;-10.782;2022-12-29T15:58:41;29.50;99.90
56298;DHT22;42208;6.376;-10.782;2022-12-29T16:01:32;29.60;99.90
56298;DHT22;42208;6.376;-10.782;2022-12-29T16:04:06;29.60;99.90
56298;DHT22;42208;6.376;-10.782;2022-12-29T16:06:36;29.60;99.90
56298;DHT22;42208;6.376;-10.782;2022-12-29T16:09:11;29.60;99.90
56298;DHT22;42208;6.376;-10.782;2022-12-29T16:14:21;29.70;99.90
56298;DHT22;42208;6.376;-10.782;2022-12-29T16:16:52;30.00;99.90
56298;DHT22;42208;6.376;-10.782;2022-12-29T16:21:59;30.00;99.90
56298;DHT22;42208;6.376;-10.782;2022-12-29T16:24:32;30.30;99.90
56298;DHT22;42208;6.376;-10.782;2022-12-29T16:27:09;30.50;99.90
56298;DHT22;42208;6.376;-10.782;2022-12-29T16:29:37;30.80;99.90
56298;DHT22;42208;6.376;-10.782;2022-12-29T16:32:30;30.80;99.90
56298;DHT22;42208;6.376;-10.782;2022-12-29T16:35:21;30.80;99.90
56298;DHT22;42208;6.376;-10.782;2022-12-29T16:38:16;31.00;99.90
56298;DHT22;42208;6.376;-10.782;2022-12-29T16:40:55;30.80;99.90
56298;DHT22;42208;6.376;-10.782;2022-12-29T16:43:29;30.70;99.90
56298;DHT22;42208;6.376;-10.782;2022-12-29T16:48:28;30.70;99.90
56298;DHT22;42208;6.376;-10.782;2022-12-29T16:51:17;30.80;99.90
56298;DHT22;42208;6.376;-10.782;2022-12-29T16:53:52;30.70;99.90
56298;DHT22;42208;6.376;-10.782;2022-12-29T16:56:26;30.60;99.90
56298;DHT22;42208;6.376;-10.782;2022-12-29T16:59:04;30.40;99.90
56298;DHT22;42208;6.376;-10.782;2022-12-29T17:01:38;30.30;99.90
56298;DHT22;42208;6.376;-10.782;2022-12-29T17:04:12;30.10;99.90
56298;DHT22;42208;6.376;-10.782;2022-12-29T17:06:41;30.00;99.90
56298;DHT22;42208;6.376;-10.782;2022-12-29T17:09:19;30.00;99.90
56298;DHT22;42208;6.376;-10.782;2022-12-29T17:11:54;30.00;99.90
56298;DHT22;42208;6.376;-10.782;2022-12-29T17:14:47;30.00;99.90
56298;DHT22;42208;6.376;-10.782;2022-12-29T17:17:21;30.00;99.90
56298;DHT22;42208;6.376;-10.782;2022-12-29T17:19:54;30.00;99.90
56298;DHT22;42208;6.376;-10.782;2022-12-29T17:22:27;30.00;99.90
56298;DHT22;42208;6.376;-10.782;2022-12-29T17:24:58;30.00;99.90
56298;DHT22;42208;6.376;-10.782;2022-12-29T17:30:10;29.90;99.90
56298;DHT22;42208;6.376;-10.782;2022-12-29T17:32:40;29.80;99.90
56298;DHT22;42208;6.376;-10.782;2022-12-29T17:35:14;29.70;99.90
56298;DHT22;42208;6.376;-10.782;2022-12-29T17:37:43;29.60;99.90
56298;DHT22;42208;6.376;-10.782;2022-12-29T17:40:17;29.50;99.90
56298;DHT22;42208;6.376;-10.782;2022-12-29T17:42:48;29.50;99.90
56298;DHT22;42208;6.376;-10.782;2022-12-29T17:45:27;29.50;99.90
56298;DHT22;42208;6.376;-10.782;2022-12-29T17:47:57;29.40;99.90
56298;DHT22;42208;6.376;-10.782;2022-12-29T17:50:26;29.40;99.90
56298;DHT22;42208;6.376;-10.782;2022-12-29T17:52:58;29.50;99.90
56298;DHT22;42208;6.376;-10.782;2022-12-29T17:55:28;29.40;99.90
56298;DHT22;42208;6.376;-10.782;2022-12-29T17:58:31;29.40;99.90
56298;DHT22;42208;6.376;-10.782;2022-12-29T18:01:01;29.30;99.90
56298;DHT22;42208;6.376;-10.782;2022-12-29T18:03:32;29.20;99.90
56298;DHT22;42208;6.376;-10.782;2022-12-29T18:06:03;29.10;99.90
56298;DHT22;42208;6.376;-10.782;2022-12-29T18:08:35;29.00;99.90
56298;DHT22;42208;6.376;-10.782;2022-12-29T18:11:25;28.90;99.90
56298;DHT22;42208;6.376;-10.782;2022-12-29T18:13:53;28.90;99.90
56298;DHT22;42208;6.376;-10.782;2022-12-29T18:16:21;28.80;99.90
56298;DHT22;42208;6.376;-10.782;2022-12-29T18:18:50;28.80;99.90
56298;DHT22;42208;6.376;-10.782;2022-12-29T18:21:22;28.70;99.90
56298;DHT22;42208;6.376;-10.782;2022-12-29T18:23:51;28.60;99.90